sensor_id;sensor_type;location;lat;lon;timestamp;temperature;humidity
23251;DHT22;11794;49.730;10.088;2022-11-25T00:00:47;1.90;99.90
23251;DHT22;11794;49.730;10.088;2022-11-25T00:03:13;1.80;99.90
23251;DHT22;11794;49.730;10.088;2022-11-25T00:05:39;1.80;99.90
23251;DHT22;11794;49.730;10.088;2022-11-25T00:08:04;1.80;99.90
23251;DHT22;11794;49.730;10.088;2022-11-25T00:10:30;1.80;99.90
23251;DHT22;11794;49.730;10.088;2022-11-25T00:12:55;1.80;99.90
23251;DHT22;11794;49.730;10.088;2022-11-25T00:15:21;1.80;99.90
23251;DHT22;11794;49.730;10.088;2022-11-25T00:17:46;1.80;99.90
23251;DHT22;11794;49.730;10.088;2022-11-25T00:20:12;1.80;99.90
23251;DHT22;11794;49.730;10.088;2022-11-25T00:22:37;1.80;99.90
23251;DHT22;11794;49.730;10.088;2022-11-25T00:25:03;1.80;99.90
23251;DHT22;11794;49.730;10.088;2022-11-25T00:27:29;1.80;99.90
23251;DHT22;11794;49.730;10.088;2022-11-25T00:29:54;1.80;99.90
23251;DHT22;11794;49.730;10.088;2022-11-25T00:32:20;1.90;99.90
23251;DHT22;11794;49.730;10.088;2022-11-25T00:34:46;1.90;99.90
23251;DHT22;11794;49.730;10.088;2022-11-25T00:37:12;1.90;99.90
23251;DHT22;11794;49.730;10.088;2022-11-25T00:39:37;1.90;99.90
23251;DHT22;11794;49.730;10.088;2022-11-25T00:42:03;1.90;99.90
23251;DHT22;11794;49.730;10.088;2022-11-25T00:44:47;1.90;99.90
23251;DHT22;11794;49.730;10.088;2022-11-25T00:47:18;1.90;99.90
23251;DHT22;11794;49.730;10.088;2022-11-25T00:49:46;2.00;99.90
23251;DHT22;11794;49.730;10.088;2022-11-25T00:52:17;2.00;99.90
23251;DHT22;11794;49.730;10.088;2022-11-25T00:54:44;2.00;99.90
23251;DHT22;11794;49.730;10.088;2022-11-25T00:57:11;2.00;99.90
23251;DHT22;11794;49.730;10.088;2022-11-25T00:59:36;2.00;99.90
23251;DHT22;11794;49.730;10.088;2022-11-25T01:02:02;2.00;99.90
23251;DHT22;11794;49.730;10.088;2022-11-25T01:04:27;2.00;99.90
23251;DHT22;11794;49.730;10.088;2022-11-25T01:06:53;2.10;99.90
23251;DHT22;11794;49.730;10.088;2022-11-25T01:09:21;2.10;99.90
23251;DHT22;11794;49.730;10.088;2022-11-25T01:11:49;2.10;99.90
23251;DHT22;11794;49.730;10.088;2022-11-25T01:14:16;2.10;99.90
23251;DHT22;11794;49.730;10.088;2022-11-25T01:16:41;2.00;99.90
23251;DHT22;11794;49.730;10.088;2022-11-25T01:19:07;2.00;99.90
23251;DHT22;11794;49.730;10.088;2022-11-25T01:21:34;2.00;99.90
23251;DHT22;11794;49.730;10.088;2022-11-25T01:24:01;1.90;99.90
23251;DHT22;11794;49.730;10.088;2022-11-25T01:26:27;1.90;99.90
23251;DHT22;11794;49.730;10.088;2022-11-25T01:29:05;1.90;99.90
23251;DHT22;11794;49.730;10.088;2022-11-25T01:31:33;1.90;99.90
23251;DHT22;11794;49.730;10.088;2022-11-25T01:34:10;1.80;99.90
23251;DHT22;11794;49.730;10.088;2022-11-25T01:36:37;1.80;99.90
23251;DHT22;11794;49.730;10.088;2022-11-25T01:39:03;1.90;99.90
23251;DHT22;11794;49.730;10.088;2022-11-25T01:41:31;1.80;99.90
23251;DHT22;11794;49.730;10.088;2022-11-25T01:44:08;1.80;99.90
23251;DHT22;11794;49.730;10.088;2022-11-25T01:49:18;1.90;99.90
23251;DHT22;11794;49.730;10.088;2022-11-25T01:52:13;1.90;99.90
23251;DHT22;11794;49.730;10.088;2022-11-25T01:57:21;1.90;99.90
23251;DHT22;11794;49.730;10.088;2022-11-25T01:59:50;1.90;99.90
23251;DHT22;11794;49.730;10.088;2022-11-25T02:02:17;1.90;99.90
23251;DHT22;11794;49.730;10.088;2022-11-25T02:04:43;1.80;99.90
23251;DHT22;11794;49.730;10.088;2022-11-25T02:07:19;1.70;99.90
23251;DHT22;11794;49.730;10.088;2022-11-25T02:09:47;1.70;99.90
23251;DHT22;11794;49.730;10.088;2022-11-25T02:12:16;1.70;99.90
23251;DHT22;11794;49.730;10.088;2022-11-25T02:14:44;1.60;99.90
23251;DHT22;11794;49.730;10.088;2022-11-25T02:17:09;1.70;99.90
23251;DHT22;11794;49.730;10.088;2022-11-25T02:20:06;1.70;99.90
23251;DHT22;11794;49.730;10.088;2022-11-25T02:25:26;1.80;99.90
23251;DHT22;11794;49.730;10.088;2022-11-25T02:28:05;1.70;99.90
23251;DHT22;11794;49.730;10.088;2022-11-25T02:30:32;1.60;99.90
23251;DHT22;11794;49.730;10.088;2022-11-25T02:32:58;1.60;99.90
23251;DHT22;11794;49.730;10.088;2022-11-25T02:35:34;1.70;99.90
23251;DHT22;11794;49.730;10.088;2022-11-25T02:41:05;1.60;99.90
23251;DHT22;11794;49.730;10.088;2022-11-25T02:43:32;1.60;99.90
23251;DHT22;11794;49.730;10.088;2022-11-25T02:46:10;1.60;99.90
23251;DHT22;11794;49.730;10.088;2022-11-25T02:48:37;1.50;99.90
23251;DHT22;11794;49.730;10.088;2022-11-25T02:51:04;1.50;99.90
23251;DHT22;11794;49.730;10.088;2022-11-25T02:53:30;1.40;99.90
23251;DHT22;11794;49.730;10.088;2022-11-25T02:55:56;1.40;99.90
23251;DHT22;11794;49.730;10.088;2022-11-25T02:58:22;1.40;99.90
23251;DHT22;11794;49.730;10.088;2022-11-25T03:00:47;1.30;99.90
23251;DHT22;11794;49.730;10.088;2022-11-25T03:03:13;1.30;99.90
23251;DHT22;11794;49.730;10.088;2022-11-25T03:05:39;1.30;99.90
23251;DHT22;11794;49.730;10.088;2022-11-25T03:08:05;1.30;99.90
23251;DHT22;11794;49.730;10.088;2022-11-25T03:10:30;1.30;99.90
23251;DHT22;11794;49.730;10.088;2022-11-25T03:12:56;1.40;99.90
23251;DHT22;11794;49.730;10.088;2022-11-25T03:15:22;1.30;99.90
23251;DHT22;11794;49.730;10.088;2022-11-25T03:17:47;1.40;99.90
23251;DHT22;11794;49.730;10.088;2022-11-25T03:20:13;1.40;99.90
23251;DHT22;11794;49.730;10.088;2022-11-25T03:22:40;1.40;99.90
23251;DHT22;11794;49.730;10.088;2022-11-25T03:25:06;1.40;99.90
23251;DHT22;11794;49.730;10.088;2022-11-25T03:27:33;1.40;99.90
23251;DHT22;11794;49.730;10.088;2022-11-25T03:29:59;1.30;99.90
23251;DHT22;11794;49.730;10.088;2022-11-25T03:32:25;1.30;99.90
23251;DHT22;11794;49.730;10.088;2022-11-25T03:34:50;1.40;99.90
23251;DHT22;11794;49.730;10.088;2022-11-25T03:37:16;1.40;99.90
23251;DHT22;11794;49.730;10.088;2022-11-25T03:39:42;1.30;99.90
23251;DHT22;11794;49.730;10.088;2022-11-25T03:42:07;1.20;99.90
23251;DHT22;11794;49.730;10.088;2022-11-25T03:44:33;1.30;99.90
23251;DHT22;11794;49.730;10.088;2022-11-25T03:46:58;1.30;99.90
23251;DHT22;11794;49.730;10.088;2022-11-25T03:49:24;1.30;99.90
23251;DHT22;11794;49.730;10.088;2022-11-25T03:51:49;1.20;99.90
23251;DHT22;11794;49.730;10.088;2022-11-25T03:54:15;1.20;99.90
23251;DHT22;11794;49.730;10.088;2022-11-25T03:56:40;1.20;99.90
23251;DHT22;11794;49.730;10.088;2022-11-25T03:59:06;1.10;99.90
23251;DHT22;11794;49.730;10.088;2022-11-25T04:01:32;1.10;99.90
23251;DHT22;11794;49.730;10.088;2022-11-25T04:03:57;1.00;99.90
23251;DHT22;11794;49.730;10.088;2022-11-25T04:06:23;1.00;99.90
23251;DHT22;11794;49.730;10.088;2022-11-25T04:08:49;1.00;99.90
23251;DHT22;11794;49.730;10.088;2022-11-25T04:11:15;1.00;99.90
23251;DHT22;11794;49.730;10.088;2022-11-25T04:13:41;1.00;99.90
23251;DHT22;11794;49.730;10.088;2022-11-25T04:16:23;0.90;99.90
23251;DHT22;11794;49.730;10.088;2022-11-25T04:18:49;0.90;99.90
23251;DHT22;11794;49.730;10.088;2022-11-25T04:21:15;0.80;99.90
23251;DHT22;11794;49.730;10.088;2022-11-25T04:23:40;0.90;99.90
23251;DHT22;11794;49.730;10.088;2022-11-25T04:26:06;0.90;99.90
23251;DHT22;11794;49.730;10.088;2022-11-25T04:28:32;0.90;99.90
23251;DHT22;11794;49.730;10.088;2022-11-25T04:30:57;0.90;99.90
23251;DHT22;11794;49.730;10.088;2022-11-25T04:33:23;1.00;99.90
23251;DHT22;11794;49.730;10.088;2022-11-25T04:35:48;1.00;99.90
23251;DHT22;11794;49.730;10.088;2022-11-25T04:38:14;0.90;99.90
23251;DHT22;11794;49.730;10.088;2022-11-25T04:40:39;0.90;99.90
23251;DHT22;11794;49.730;10.088;2022-11-25T04:43:05;1.00;99.90
23251;DHT22;11794;49.730;10.088;2022-11-25T04:45:30;1.00;99.90
23251;DHT22;11794;49.730;10.088;2022-11-25T04:47:56;0.90;99.90
23251;DHT22;11794;49.730;10.088;2022-11-25T04:50:23;0.90;99.90
23251;DHT22;11794;49.730;10.088;2022-11-25T04:52:49;0.80;99.90
23251;DHT22;11794;49.730;10.088;2022-11-25T04:55:14;0.90;99.90
23251;DHT22;11794;49.730;10.088;2022-11-25T04:57:40;0.80;99.90
23251;DHT22;11794;49.730;10.088;2022-11-25T05:00:07;0.80;99.90
23251;DHT22;11794;49.730;10.088;2022-11-25T05:02:33;0.70;99.90
23251;DHT22;11794;49.730;10.088;2022-11-25T05:04:59;0.70;99.90
23251;DHT22;11794;49.730;10.088;2022-11-25T05:07:26;0.80;99.90
23251;DHT22;11794;49.730;10.088;2022-11-25T05:09:52;0.80;99.90
23251;DHT22;11794;49.730;10.088;2022-11-25T05:12:20;0.90;99.90
23251;DHT22;11794;49.730;10.088;2022-11-25T05:14:47;0.80;99.90
23251;DHT22;11794;49.730;10.088;2022-11-25T05:17:15;0.90;99.90
23251;DHT22;11794;49.730;10.088;2022-11-25T05:19:41;0.90;99.90
23251;DHT22;11794;49.730;10.088;2022-11-25T05:22:10;0.90;99.90
23251;DHT22;11794;49.730;10.088;2022-11-25T05:24:36;0.90;99.90
23251;DHT22;11794;49.730;10.088;2022-11-25T05:27:02;0.80;99.90
23251;DHT22;11794;49.730;10.088;2022-11-25T05:29:27;0.70;99.90
23251;DHT22;11794;49.730;10.088;2022-11-25T05:31:53;0.70;99.90
23251;DHT22;11794;49.730;10.088;2022-11-25T05:34:18;0.70;99.90
23251;DHT22;11794;49.730;10.088;2022-11-25T05:36:44;0.70;99.90
23251;DHT22;11794;49.730;10.088;2022-11-25T05:39:09;0.70;99.90
23251;DHT22;11794;49.730;10.088;2022-11-25T05:41:35;0.70;99.90
23251;DHT22;11794;49.730;10.088;2022-11-25T05:44:00;0.70;99.90
23251;DHT22;11794;49.730;10.088;2022-11-25T05:46:26;0.80;99.90
23251;DHT22;11794;49.730;10.088;2022-11-25T05:48:53;0.90;99.90
23251;DHT22;11794;49.730;10.088;2022-11-25T05:51:19;0.90;99.90
23251;DHT22;11794;49.730;10.088;2022-11-25T05:53:44;0.90;99.90
23251;DHT22;11794;49.730;10.088;2022-11-25T05:56:10;0.90;99.90
23251;DHT22;11794;49.730;10.088;2022-11-25T05:58:35;0.90;99.90
23251;DHT22;11794;49.730;10.088;2022-11-25T06:01:09;0.90;99.90
23251;DHT22;11794;49.730;10.088;2022-11-25T06:03:35;0.90;99.90
23251;DHT22;11794;49.730;10.088;2022-11-25T06:06:01;0.90;99.90
23251;DHT22;11794;49.730;10.088;2022-11-25T06:08:27;0.90;99.90
23251;DHT22;11794;49.730;10.088;2022-11-25T06:10:53;0.90;99.90
23251;DHT22;11794;49.730;10.088;2022-11-25T06:13:19;0.90;99.90
23251;DHT22;11794;49.730;10.088;2022-11-25T06:15:46;0.90;99.90
23251;DHT22;11794;49.730;10.088;2022-11-25T06:18:13;0.90;99.90
23251;DHT22;11794;49.730;10.088;2022-11-25T06:20:39;0.90;99.90
23251;DHT22;11794;49.730;10.088;2022-11-25T06:23:05;0.90;99.90
23251;DHT22;11794;49.730;10.088;2022-11-25T06:25:32;0.80;99.90
23251;DHT22;11794;49.730;10.088;2022-11-25T06:27:58;0.80;99.90
23251;DHT22;11794;49.730;10.088;2022-11-25T06:30:24;0.80;99.90
23251;DHT22;11794;49.730;10.088;2022-11-25T06:32:50;0.80;99.90
23251;DHT22;11794;49.730;10.088;2022-11-25T06:35:18;0.80;99.90
23251;DHT22;11794;49.730;10.088;2022-11-25T06:37:43;0.80;99.90
23251;DHT22;11794;49.730;10.088;2022-11-25T06:40:09;0.80;99.90
23251;DHT22;11794;49.730;10.088;2022-11-25T06:42:36;0.80;99.90
23251;DHT22;11794;49.730;10.088;2022-11-25T06:45:03;0.80;99.90
23251;DHT22;11794;49.730;10.088;2022-11-25T06:47:28;0.80;99.90
23251;DHT22;11794;49.730;10.088;2022-11-25T06:49:54;0.80;99.90
23251;DHT22;11794;49.730;10.088;2022-11-25T06:52:20;0.80;99.90
23251;DHT22;11794;49.730;10.088;2022-11-25T06:54:45;0.90;99.90
23251;DHT22;11794;49.730;10.088;2022-11-25T06:57:11;1.00;99.90
23251;DHT22;11794;49.730;10.088;2022-11-25T06:59:40;1.10;99.90
23251;DHT22;11794;49.730;10.088;2022-11-25T07:02:07;1.10;99.90
23251;DHT22;11794;49.730;10.088;2022-11-25T07:04:33;1.10;99.90
23251;DHT22;11794;49.730;10.088;2022-11-25T07:07:00;1.10;99.90
23251;DHT22;11794;49.730;10.088;2022-11-25T07:09:25;1.10;99.90
23251;DHT22;11794;49.730;10.088;2022-11-25T07:11:51;1.00;99.90
23251;DHT22;11794;49.730;10.088;2022-11-25T07:14:16;1.00;99.90
23251;DHT22;11794;49.730;10.088;2022-11-25T07:16:43;1.00;99.90
23251;DHT22;11794;49.730;10.088;2022-11-25T07:19:11;1.00;99.90
23251;DHT22;11794;49.730;10.088;2022-11-25T07:21:37;1.00;99.90
23251;DHT22;11794;49.730;10.088;2022-11-25T07:24:05;1.10;99.90
23251;DHT22;11794;49.730;10.088;2022-11-25T07:26:33;1.10;99.90
23251;DHT22;11794;49.730;10.088;2022-11-25T07:29:02;1.10;99.90
23251;DHT22;11794;49.730;10.088;2022-11-25T07:31:40;1.10;99.90
23251;DHT22;11794;49.730;10.088;2022-11-25T07:34:18;1.20;99.90
23251;DHT22;11794;49.730;10.088;2022-11-25T07:36:45;1.20;99.90
23251;DHT22;11794;49.730;10.088;2022-11-25T07:39:13;1.30;99.90
23251;DHT22;11794;49.730;10.088;2022-11-25T07:41:39;1.30;99.90
23251;DHT22;11794;49.730;10.088;2022-11-25T07:44:06;1.40;99.90
23251;DHT22;11794;49.730;10.088;2022-11-25T07:46:38;1.50;99.90
23251;DHT22;11794;49.730;10.088;2022-11-25T07:49:12;1.70;99.90
23251;DHT22;11794;49.730;10.088;2022-11-25T07:51:41;1.80;99.90
23251;DHT22;11794;49.730;10.088;2022-11-25T07:54:10;2.00;99.90
23251;DHT22;11794;49.730;10.088;2022-11-25T07:56:38;2.30;99.90
23251;DHT22;11794;49.730;10.088;2022-11-25T07:59:04;2.50;99.90
23251;DHT22;11794;49.730;10.088;2022-11-25T08:01:30;2.80;99.90
23251;DHT22;11794;49.730;10.088;2022-11-25T08:03:56;3.10;99.90
23251;DHT22;11794;49.730;10.088;2022-11-25T08:06:24;3.40;99.90
23251;DHT22;11794;49.730;10.088;2022-11-25T08:08:50;3.60;99.90
23251;DHT22;11794;49.730;10.088;2022-11-25T08:11:21;3.90;99.90
23251;DHT22;11794;49.730;10.088;2022-11-25T08:13:47;4.10;99.90
23251;DHT22;11794;49.730;10.088;2022-11-25T08:16:15;4.10;99.90
23251;DHT22;11794;49.730;10.088;2022-11-25T08:18:40;4.00;99.90
23251;DHT22;11794;49.730;10.088;2022-11-25T08:21:08;3.90;99.90
23251;DHT22;11794;49.730;10.088;2022-11-25T08:23:35;4.20;99.90
23251;DHT22;11794;49.730;10.088;2022-11-25T08:26:07;4.50;99.90
23251;DHT22;11794;49.730;10.088;2022-11-25T08:28:34;4.70;99.90
23251;DHT22;11794;49.730;10.088;2022-11-25T08:31:08;5.00;99.90
23251;DHT22;11794;49.730;10.088;2022-11-25T08:33:34;5.30;99.90
23251;DHT22;11794;49.730;10.088;2022-11-25T08:36:00;5.60;99.90
23251;DHT22;11794;49.730;10.088;2022-11-25T08:38:27;5.60;99.90
23251;DHT22;11794;49.730;10.088;2022-11-25T08:40:53;5.10;99.90
23251;DHT22;11794;49.730;10.088;2022-11-25T08:43:19;4.80;99.90
23251;DHT22;11794;49.730;10.088;2022-11-25T08:45:47;4.80;99.90
23251;DHT22;11794;49.730;10.088;2022-11-25T08:48:13;4.70;99.90
23251;DHT22;11794;49.730;10.088;2022-11-25T08:50:38;4.60;99.90
23251;DHT22;11794;49.730;10.088;2022-11-25T08:53:04;4.80;99.90
23251;DHT22;11794;49.730;10.088;2022-11-25T08:55:30;4.90;99.90
23251;DHT22;11794;49.730;10.088;2022-11-25T08:57:56;5.00;99.90
23251;DHT22;11794;49.730;10.088;2022-11-25T09:00:22;5.00;99.90
23251;DHT22;11794;49.730;10.088;2022-11-25T09:02:48;4.80;99.90
23251;DHT22;11794;49.730;10.088;2022-11-25T09:05:15;4.70;99.90
23251;DHT22;11794;49.730;10.088;2022-11-25T09:07:41;4.90;99.90
23251;DHT22;11794;49.730;10.088;2022-11-25T09:10:11;5.00;99.90
23251;DHT22;11794;49.730;10.088;2022-11-25T09:12:37;5.00;99.90
23251;DHT22;11794;49.730;10.088;2022-11-25T09:15:04;4.90;99.90
23251;DHT22;11794;49.730;10.088;2022-11-25T09:17:29;4.90;99.90
23251;DHT22;11794;49.730;10.088;2022-11-25T09:19:55;5.10;99.90
23251;DHT22;11794;49.730;10.088;2022-11-25T09:22:21;5.30;99.90
23251;DHT22;11794;49.730;10.088;2022-11-25T09:24:46;5.80;99.90
23251;DHT22;11794;49.730;10.088;2022-11-25T09:27:12;6.80;99.90
23251;DHT22;11794;49.730;10.088;2022-11-25T09:29:38;8.50;99.90
23251;DHT22;11794;49.730;10.088;2022-11-25T09:32:03;9.40;99.90
23251;DHT22;11794;49.730;10.088;2022-11-25T09:34:29;10.90;99.90
23251;DHT22;11794;49.730;10.088;2022-11-25T09:36:54;11.30;99.90
23251;DHT22;11794;49.730;10.088;2022-11-25T09:39:20;9.90;99.90
23251;DHT22;11794;49.730;10.088;2022-11-25T09:45:16;8.60;99.90
23251;DHT22;11794;49.730;10.088;2022-11-25T09:48:23;7.70;99.90
23251;DHT22;11794;49.730;10.088;2022-11-25T09:58:54;6.90;99.90
23251;DHT22;11794;49.730;10.088;2022-11-25T10:01:24;6.50;99.90
23251;DHT22;11794;49.730;10.088;2022-11-25T10:06:22;5.90;99.90
23251;DHT22;11794;49.730;10.088;2022-11-25T10:08:55;5.60;99.90
23251;DHT22;11794;49.730;10.088;2022-11-25T10:11:47;5.40;99.90
23251;DHT22;11794;49.730;10.088;2022-11-25T10:14:45;5.50;99.90
23251;DHT22;11794;49.730;10.088;2022-11-25T10:17:37;5.50;99.90
23251;DHT22;11794;49.730;10.088;2022-11-25T10:22:43;5.50;99.90
23251;DHT22;11794;49.730;10.088;2022-11-25T10:25:19;5.70;99.90
23251;DHT22;11794;49.730;10.088;2022-11-25T10:28:01;5.60;99.90
23251;DHT22;11794;49.730;10.088;2022-11-25T10:33:16;5.90;99.90
23251;DHT22;11794;49.730;10.088;2022-11-25T10:35:57;6.00;99.90
23251;DHT22;11794;49.730;10.088;2022-11-25T10:38:55;6.00;99.90
23251;DHT22;11794;49.730;10.088;2022-11-25T10:41:23;5.90;99.90
23251;DHT22;11794;49.730;10.088;2022-11-25T10:43:50;5.90;99.90
23251;DHT22;11794;49.730;10.088;2022-11-25T10:46:39;5.90;99.90
23251;DHT22;11794;49.730;10.088;2022-11-25T10:49:22;5.80;99.90
23251;DHT22;11794;49.730;10.088;2022-11-25T10:51:50;5.80;99.90
23251;DHT22;11794;49.730;10.088;2022-11-25T10:54:28;5.80;99.90
23251;DHT22;11794;49.730;10.088;2022-11-25T10:57:02;5.80;99.90
23251;DHT22;11794;49.730;10.088;2022-11-25T10:59:36;5.70;99.90
23251;DHT22;11794;49.730;10.088;2022-11-25T11:02:24;5.60;99.90
23251;DHT22;11794;49.730;10.088;2022-11-25T11:05:19;5.60;99.90
23251;DHT22;11794;49.730;10.088;2022-11-25T11:07:46;5.70;99.90
23251;DHT22;11794;49.730;10.088;2022-11-25T11:10:30;5.60;99.90
23251;DHT22;11794;49.730;10.088;2022-11-25T11:12:58;5.60;99.90
23251;DHT22;11794;49.730;10.088;2022-11-25T11:15:27;5.60;99.90
23251;DHT22;11794;49.730;10.088;2022-11-25T11:17:54;5.60;99.90
23251;DHT22;11794;49.730;10.088;2022-11-25T11:20:28;5.70;99.90
23251;DHT22;11794;49.730;10.088;2022-11-25T11:25:29;5.80;99.90
23251;DHT22;11794;49.730;10.088;2022-11-25T11:27:55;5.90;99.90
23251;DHT22;11794;49.730;10.088;2022-11-25T11:30:23;5.90;99.90
23251;DHT22;11794;49.730;10.088;2022-11-25T11:33:04;5.90;99.90
23251;DHT22;11794;49.730;10.088;2022-11-25T11:35:54;6.00;99.90
23251;DHT22;11794;49.730;10.088;2022-11-25T11:38:36;6.00;99.90
23251;DHT22;11794;49.730;10.088;2022-11-25T11:53:10;6.30;99.90
23251;DHT22;11794;49.730;10.088;2022-11-25T11:58:21;6.50;99.90
23251;DHT22;11794;49.730;10.088;2022-11-25T12:01:38;6.50;99.90
23251;DHT22;11794;49.730;10.088;2022-11-25T12:06:24;6.60;99.90
23251;DHT22;11794;49.730;10.088;2022-11-25T12:09:03;6.60;99.90
23251;DHT22;11794;49.730;10.088;2022-11-25T12:11:37;6.50;99.90
23251;DHT22;11794;49.730;10.088;2022-11-25T12:17:29;6.60;99.90
23251;DHT22;11794;49.730;10.088;2022-11-25T12:22:49;6.60;99.90
23251;DHT22;11794;49.730;10.088;2022-11-25T12:25:37;6.70;99.90
23251;DHT22;11794;49.730;10.088;2022-11-25T12:30:57;6.70;99.90
23251;DHT22;11794;49.730;10.088;2022-11-25T12:33:43;6.70;99.90
23251;DHT22;11794;49.730;10.088;2022-11-25T12:36:35;6.60;99.90
23251;DHT22;11794;49.730;10.088;2022-11-25T12:44:55;6.70;99.90
23251;DHT22;11794;49.730;10.088;2022-11-25T12:47:24;6.70;99.90
23251;DHT22;11794;49.730;10.088;2022-11-25T12:49:52;6.80;99.90
23251;DHT22;11794;49.730;10.088;2022-11-25T12:55:05;6.80;99.90
23251;DHT22;11794;49.730;10.088;2022-11-25T13:00:24;7.10;99.90
23251;DHT22;11794;49.730;10.088;2022-11-25T13:14:51;7.30;99.90
23251;DHT22;11794;49.730;10.088;2022-11-25T13:17:19;7.30;99.90
23251;DHT22;11794;49.730;10.088;2022-11-25T13:19:46;7.30;99.90
23251;DHT22;11794;49.730;10.088;2022-11-25T13:24:48;7.30;99.90
23251;DHT22;11794;49.730;10.088;2022-11-25T13:27:55;7.20;99.90
23251;DHT22;11794;49.730;10.088;2022-11-25T13:30:35;7.20;99.90
23251;DHT22;11794;49.730;10.088;2022-11-25T13:35:56;7.20;99.90
23251;DHT22;11794;49.730;10.088;2022-11-25T13:38:56;7.20;99.90
23251;DHT22;11794;49.730;10.088;2022-11-25T13:41:39;7.20;99.90
23251;DHT22;11794;49.730;10.088;2022-11-25T13:44:26;7.20;99.90
23251;DHT22;11794;49.730;10.088;2022-11-25T13:46:55;7.30;99.90
23251;DHT22;11794;49.730;10.088;2022-11-25T13:49:52;7.30;99.90
23251;DHT22;11794;49.730;10.088;2022-11-25T13:54:48;7.40;99.90
23251;DHT22;11794;49.730;10.088;2022-11-25T13:57:29;7.30;99.90
23251;DHT22;11794;49.730;10.088;2022-11-25T14:00:00;7.30;99.90
23251;DHT22;11794;49.730;10.088;2022-11-25T14:05:10;7.20;99.90
23251;DHT22;11794;49.730;10.088;2022-11-25T14:07:45;7.20;99.90
23251;DHT22;11794;49.730;10.088;2022-11-25T14:10:20;7.20;99.90
23251;DHT22;11794;49.730;10.088;2022-11-25T14:15:31;7.20;99.90
23251;DHT22;11794;49.730;10.088;2022-11-25T14:26:33;7.40;99.90
23251;DHT22;11794;49.730;10.088;2022-11-25T14:29:01;7.40;99.90
23251;DHT22;11794;49.730;10.088;2022-11-25T14:31:50;7.40;99.90
23251;DHT22;11794;49.730;10.088;2022-11-25T14:34:35;7.50;99.90
23251;DHT22;11794;49.730;10.088;2022-11-25T14:37:13;7.50;99.90
23251;DHT22;11794;49.730;10.088;2022-11-25T14:42:52;7.50;99.90
23251;DHT22;11794;49.730;10.088;2022-11-25T14:47:50;7.50;99.90
23251;DHT22;11794;49.730;10.088;2022-11-25T14:50:15;7.40;99.90
23251;DHT22;11794;49.730;10.088;2022-11-25T14:52:42;7.50;99.90
23251;DHT22;11794;49.730;10.088;2022-11-25T14:55:09;7.50;99.90
23251;DHT22;11794;49.730;10.088;2022-11-25T14:57:37;7.50;99.90
23251;DHT22;11794;49.730;10.088;2022-11-25T15:00:05;7.50;99.90
23251;DHT22;11794;49.730;10.088;2022-11-25T15:02:33;7.50;99.90
23251;DHT22;11794;49.730;10.088;2022-11-25T15:05:01;7.40;99.90
23251;DHT22;11794;49.730;10.088;2022-11-25T15:07:27;7.40;99.90
23251;DHT22;11794;49.730;10.088;2022-11-25T15:09:53;7.40;99.90
23251;DHT22;11794;49.730;10.088;2022-11-25T15:12:20;7.40;99.90
23251;DHT22;11794;49.730;10.088;2022-11-25T15:14:55;7.40;99.90
23251;DHT22;11794;49.730;10.088;2022-11-25T15:17:28;7.30;99.90
23251;DHT22;11794;49.730;10.088;2022-11-25T15:19:57;7.30;99.90
23251;DHT22;11794;49.730;10.088;2022-11-25T15:22:23;7.30;99.90
23251;DHT22;11794;49.730;10.088;2022-11-25T15:24:53;7.30;99.90
23251;DHT22;11794;49.730;10.088;2022-11-25T15:27:22;7.30;99.90
23251;DHT22;11794;49.730;10.088;2022-11-25T15:29:50;7.20;99.90
23251;DHT22;11794;49.730;10.088;2022-11-25T15:32:26;7.20;99.90
23251;DHT22;11794;49.730;10.088;2022-11-25T15:34:53;7.30;99.90
23251;DHT22;11794;49.730;10.088;2022-11-25T15:37:20;7.30;99.90
23251;DHT22;11794;49.730;10.088;2022-11-25T15:39:45;7.30;99.90
23251;DHT22;11794;49.730;10.088;2022-11-25T15:44:45;7.30;99.90
23251;DHT22;11794;49.730;10.088;2022-11-25T15:49:59;7.20;99.90
23251;DHT22;11794;49.730;10.088;2022-11-25T15:52:29;7.20;99.90
23251;DHT22;11794;49.730;10.088;2022-11-25T15:55:00;7.20;99.90
23251;DHT22;11794;49.730;10.088;2022-11-25T15:57:31;7.20;99.90
23251;DHT22;11794;49.730;10.088;2022-11-25T16:10:29;6.90;99.90
23251;DHT22;11794;49.730;10.088;2022-11-25T16:16:07;6.90;99.90
23251;DHT22;11794;49.730;10.088;2022-11-25T16:21:11;6.90;99.90
23251;DHT22;11794;49.730;10.088;2022-11-25T16:23:40;6.90;99.90
23251;DHT22;11794;49.730;10.088;2022-11-25T16:26:15;6.90;99.90
23251;DHT22;11794;49.730;10.088;2022-11-25T16:28:48;7.00;99.90
23251;DHT22;11794;49.730;10.088;2022-11-25T16:31:15;7.00;99.90
23251;DHT22;11794;49.730;10.088;2022-11-25T16:33:41;7.00;99.90
23251;DHT22;11794;49.730;10.088;2022-11-25T16:36:07;7.10;99.90
23251;DHT22;11794;49.730;10.088;2022-11-25T16:38:32;7.00;99.90
23251;DHT22;11794;49.730;10.088;2022-11-25T16:40:58;7.00;99.90
23251;DHT22;11794;49.730;10.088;2022-11-25T16:43:26;7.00;99.90
23251;DHT22;11794;49.730;10.088;2022-11-25T16:45:54;7.00;99.90
23251;DHT22;11794;49.730;10.088;2022-11-25T16:48:23;7.00;99.90
23251;DHT22;11794;49.730;10.088;2022-11-25T16:50:49;7.00;99.90
23251;DHT22;11794;49.730;10.088;2022-11-25T16:53:16;7.10;99.90
23251;DHT22;11794;49.730;10.088;2022-11-25T16:55:45;7.10;99.90
23251;DHT22;11794;49.730;10.088;2022-11-25T16:58:20;7.10;99.90
23251;DHT22;11794;49.730;10.088;2022-11-25T17:00:55;7.00;99.90
23251;DHT22;11794;49.730;10.088;2022-11-25T17:03:21;7.10;99.90
23251;DHT22;11794;49.730;10.088;2022-11-25T17:05:51;7.00;99.90
23251;DHT22;11794;49.730;10.088;2022-11-25T17:08:17;7.00;99.90
23251;DHT22;11794;49.730;10.088;2022-11-25T17:10:43;7.00;99.90
23251;DHT22;11794;49.730;10.088;2022-11-25T17:13:16;7.00;99.90
23251;DHT22;11794;49.730;10.088;2022-11-25T17:15:42;7.00;99.90
23251;DHT22;11794;49.730;10.088;2022-11-25T17:18:11;7.00;99.90
23251;DHT22;11794;49.730;10.088;2022-11-25T17:20:37;7.00;99.90
23251;DHT22;11794;49.730;10.088;2022-11-25T17:23:13;7.00;99.90
23251;DHT22;11794;49.730;10.088;2022-11-25T17:25:40;7.00;99.90
23251;DHT22;11794;49.730;10.088;2022-11-25T17:28:11;6.90;99.90
23251;DHT22;11794;49.730;10.088;2022-11-25T17:30:38;6.80;99.90
23251;DHT22;11794;49.730;10.088;2022-11-25T17:33:06;6.80;99.90
23251;DHT22;11794;49.730;10.088;2022-11-25T17:35:35;6.70;99.90
23251;DHT22;11794;49.730;10.088;2022-11-25T17:38:00;6.70;99.90
23251;DHT22;11794;49.730;10.088;2022-11-25T17:40:27;6.60;99.90
23251;DHT22;11794;49.730;10.088;2022-11-25T17:42:52;6.60;99.90
23251;DHT22;11794;49.730;10.088;2022-11-25T17:45:20;6.60;99.90
23251;DHT22;11794;49.730;10.088;2022-11-25T17:47:46;6.60;99.90
23251;DHT22;11794;49.730;10.088;2022-11-25T17:50:21;6.50;99.90
23251;DHT22;11794;49.730;10.088;2022-11-25T17:52:47;6.50;99.90
23251;DHT22;11794;49.730;10.088;2022-11-25T17:55:13;6.50;99.90